createdAt,value
2022-08-07T00:00:45.442Z,77.96
2022-08-07T00:02:37.060Z,77.92
2022-08-07T00:02:46.415Z,78.06
2022-08-07T00:03:47.421Z,77.92
2022-08-07T00:04:45.479Z,78.12
2022-08-07T00:05:45.382Z,78.12
2022-08-07T00:06:51.237Z,78.16
2022-08-07T00:07:46.343Z,77.92
2022-08-07T00:08:45.346Z,77.96
2022-08-07T00:10:04.730Z,78.27
2022-08-07T00:10:47.963Z,78.27
2022-08-07T00:11:54.295Z,78.47
2022-08-07T00:12:59.909Z,78.57
2022-08-07T00:13:46.277Z,78.88
2022-08-07T00:14:45.258Z,78.98
2022-08-07T00:15:46.870Z,78.77
2022-08-07T00:16:46.229Z,78.77
2022-08-07T00:17:45.218Z,78.67
2022-08-07T00:18:45.218Z,78.98
2022-08-07T00:20:01.104Z,78.67
2022-08-07T00:20:46.180Z,78.81
2022-08-07T00:21:57.155Z,78.91
2022-08-07T00:22:51.803Z,79.32
2022-08-07T00:23:46.142Z,79.52
2022-08-07T00:24:45.152Z,79.22
2022-08-07T00:25:45.995Z,79.12
2022-08-07T00:26:59.435Z,79.12
2022-08-07T00:27:53.534Z,79.43
2022-08-07T00:28:55.712Z,79.36
2022-08-07T00:29:46.052Z,79.25
2022-08-07T00:30:45.052Z,79.22
2022-08-07T00:31:45.031Z,79.22
2022-08-07T00:32:46.032Z,79.43
2022-08-07T00:33:47.499Z,80.07
2022-08-07T00:34:44.991Z,80.28
2022-08-07T00:35:49.484Z,80.18
2022-08-07T00:36:44.981Z,80.38
2022-08-07T00:37:47.909Z,80.28
2022-08-07T00:38:45.022Z,80.48
2022-08-07T00:39:45.425Z,80.48
2022-08-07T00:40:45.921Z,80.69
2022-08-07T00:41:53.058Z,80.48
2022-08-07T00:42:45.895Z,80.38
2022-08-07T00:43:58.903Z,80.48
2022-08-07T00:44:45.862Z,80.99
2022-08-07T00:45:46.589Z,80.79
2022-08-07T00:46:44.856Z,81.10
2022-08-07T00:48:07.822Z,81.44
2022-08-07T00:48:49.788Z,81.34
2022-08-07T00:50:19.187Z,81.13
2022-08-07T00:50:51.561Z,80.83
2022-08-07T00:51:57.479Z,80.73
2022-08-07T00:52:47.431Z,80.73
2022-08-07T00:53:50.182Z,80.73
2022-08-07T00:54:45.735Z,80.73
2022-08-07T00:56:02.170Z,80.62
2022-08-07T00:56:45.761Z,80.52
2022-08-07T00:57:55.882Z,80.38
2022-08-07T00:58:46.841Z,80.52
2022-08-07T00:59:44.696Z,80.62
2022-08-07T01:00:54.175Z,80.52
2022-08-07T01:01:45.751Z,80.62
2022-08-07T01:02:44.661Z,80.52
2022-08-07T01:03:57.162Z,80.62
2022-08-07T01:04:45.618Z,80.62
2022-08-07T01:05:53.651Z,80.73
2022-08-07T01:06:45.572Z,80.83
2022-08-07T01:07:44.568Z,81.13
2022-08-07T01:08:51.515Z,81.13
2022-08-07T01:10:06.578Z,81.13
2022-08-07T01:10:47.624Z,81.13
2022-08-07T01:12:10.137Z,81.34
2022-08-07T01:12:53.738Z,81.24
2022-08-07T01:13:55.504Z,81.44
2022-08-07T01:14:45.482Z,81.44
2022-08-07T01:16:05.413Z,81.34
2022-08-07T01:16:46.943Z,81.54
2022-08-07T01:17:44.442Z,81.54
2022-08-07T01:18:44.447Z,81.34
2022-08-07T01:19:44.951Z,81.44
2022-08-07T01:20:45.395Z,81.54
2022-08-07T01:21:45.393Z,81.68
2022-08-07T01:22:54.139Z,81.58
2022-08-07T01:23:46.655Z,81.48
2022-08-07T01:24:44.346Z,81.38
2022-08-07T01:25:55.654Z,81.27
2022-08-07T01:26:45.316Z,81.07
2022-08-07T01:27:51.127Z,81.58
2022-08-07T01:28:45.934Z,81.88
2022-08-07T01:29:44.264Z,81.58
2022-08-07T01:30:44.265Z,81.48
2022-08-07T01:31:48.600Z,82.09
2022-08-07T01:32:44.237Z,83.22
2022-08-07T01:33:55.159Z,82.84
2022-08-07T01:34:47.323Z,82.43
2022-08-07T01:35:54.096Z,82.54
2022-08-07T01:36:45.180Z,82.34
2022-08-07T01:37:45.177Z,82.43
2022-08-07T01:38:44.173Z,82.34
2022-08-07T01:39:46.472Z,82.13
2022-08-07T01:40:44.144Z,82.75
2022-08-07T01:42:07.646Z,82.75
2022-08-07T01:42:57.654Z,82.75
2022-08-07T01:43:45.092Z,82.84
2022-08-07T01:44:44.080Z,82.95
2022-08-07T01:45:46.702Z,83.05
2022-08-07T01:46:44.048Z,83.25
2022-08-07T01:48:54.207Z,83.97
2022-08-07T01:49:53.594Z,83.46
2022-08-07T01:50:53.219Z,83.15
2022-08-07T01:52:04.144Z,82.95
2022-08-07T01:52:55.050Z,83.36
2022-08-07T01:54:09.385Z,84.17
2022-08-07T01:54:54.154Z,83.87
2022-08-07T01:55:53.135Z,84.07
2022-08-07T01:56:53.146Z,83.97
2022-08-07T01:58:05.455Z,83.76
2022-08-07T01:58:54.106Z,84.01
2022-08-07T01:59:53.086Z,83.91
2022-08-07T02:01:09.458Z,83.91
2022-08-07T02:02:01.980Z,83.29
2022-08-07T02:03:11.640Z,83.05
2022-08-07T02:03:54.072Z,83.25
2022-08-07T02:04:56.454Z,83.76
2022-08-07T02:05:59.941Z,83.91
2022-08-07T02:06:54.233Z,83.91
2022-08-07T02:07:52.998Z,83.70
2022-08-07T02:08:54.437Z,83.70
2022-08-07T02:09:58.708Z,83.70
2022-08-07T02:10:55.356Z,83.81
2022-08-07T02:12:02.624Z,84.01
2022-08-07T02:12:53.930Z,84.22
2022-08-07T02:13:57.177Z,84.42
2022-08-07T02:14:53.889Z,84.22
2022-08-07T02:15:53.101Z,84.22
2022-08-07T02:16:52.981Z,84.11
2022-08-07T02:17:52.861Z,84.22
2022-08-07T02:18:53.220Z,84.11
2022-08-07T02:20:07.093Z,84.72
2022-08-07T02:20:57.326Z,85.44
2022-08-07T02:21:56.255Z,85.55
2022-08-07T02:22:53.025Z,85.55
2022-08-07T02:23:52.809Z,84.52
2022-08-07T02:24:52.764Z,84.52
2022-08-07T02:26:30.478Z,84.72
2022-08-07T02:26:53.735Z,84.11
2022-08-07T02:27:53.193Z,84.11
2022-08-07T02:28:52.705Z,83.81
2022-08-07T02:29:54.308Z,83.81
2022-08-07T02:30:52.694Z,83.91
2022-08-07T02:31:54.647Z,83.70
2022-08-07T02:33:03.882Z,83.70
2022-08-07T02:34:02.943Z,85.03
2022-08-07T02:34:53.631Z,85.44
2022-08-07T02:36:30.526Z,85.34
2022-08-07T02:36:53.599Z,84.63
2022-08-07T02:37:52.605Z,84.93
2022-08-07T02:38:57.021Z,85.55
2022-08-07T02:40:11.830Z,84.72
2022-08-07T02:40:55.663Z,84.11
2022-08-07T02:41:54.893Z,84.63
2022-08-07T02:42:52.811Z,84.93
2022-08-07T02:43:52.510Z,84.31
2022-08-07T02:44:52.503Z,84.69
2022-08-07T02:45:58.311Z,84.69
2022-08-07T02:46:53.468Z,84.99
2022-08-07T02:47:52.457Z,83.87
2022-08-07T02:48:55.233Z,85.20
2022-08-07T02:49:56.290Z,84.17
2022-08-07T02:50:53.648Z,83.76
2022-08-07T02:51:52.439Z,83.76
2022-08-07T02:52:52.390Z,84.89
2022-08-07T02:53:52.370Z,84.17
2022-08-07T02:54:52.351Z,83.97
2022-08-07T02:56:04.137Z,83.87
2022-08-07T02:56:53.330Z,83.97
2022-08-07T02:57:52.331Z,84.17
2022-08-07T02:58:54.137Z,84.07
2022-08-07T02:59:55.023Z,83.76
2022-08-07T03:00:53.344Z,83.66
2022-08-07T03:01:55.462Z,84.79
2022-08-07T03:02:54.821Z,85.30
2022-08-07T03:03:52.241Z,85.71
2022-08-07T03:04:52.233Z,85.81
2022-08-07T03:05:53.620Z,85.10
2022-08-07T03:06:52.202Z,84.31
2022-08-07T03:08:07.634Z,85.85
2022-08-07T03:08:53.163Z,85.75
2022-08-07T03:09:52.524Z,84.83
2022-08-07T03:10:52.151Z,85.24
2022-08-07T03:11:57.902Z,86.57
2022-08-07T03:12:53.115Z,87.08
2022-08-07T03:13:52.114Z,86.67
2022-08-07T03:14:53.108Z,86.61
2022-08-07T03:15:58.372Z,86.20
2022-08-07T03:16:53.066Z,85.89
2022-08-07T03:17:53.598Z,85.48
2022-08-07T03:18:52.046Z,85.69
2022-08-07T03:19:55.163Z,85.69
2022-08-07T03:20:52.457Z,85.48
2022-08-07T03:21:52.006Z,86.30
2022-08-07T03:22:51.989Z,85.99
2022-08-07T03:24:20.858Z,85.07
2022-08-07T03:24:52.947Z,85.17
2022-08-07T03:25:59.761Z,85.89
2022-08-07T03:26:59.231Z,85.38
2022-08-07T03:27:59.127Z,85.28
2022-08-07T03:28:52.900Z,85.28
2022-08-07T03:29:51.888Z,85.48
2022-08-07T03:30:51.869Z,85.38
2022-08-07T03:31:51.877Z,85.34
2022-08-07T03:32:58.629Z,85.48
2022-08-07T03:33:52.842Z,86.10
2022-08-07T03:35:00.701Z,85.99
2022-08-07T03:35:52.831Z,86.30
2022-08-07T03:36:51.801Z,86.61
2022-08-07T03:37:54.020Z,86.81
2022-08-07T03:38:51.760Z,88.56
2022-08-07T03:40:13.292Z,87.53
2022-08-07T03:40:57.257Z,87.57
2022-08-07T03:41:53.297Z,89.31
2022-08-07T03:42:51.713Z,89.11
2022-08-07T03:43:56.843Z,88.90
2022-08-07T03:44:53.433Z,89.04
2022-08-07T03:45:52.684Z,88.94
2022-08-07T03:47:13.203Z,88.94
2022-08-07T03:47:52.674Z,89.50
2022-08-07T03:49:02.903Z,89.39
2022-08-07T03:49:53.504Z,89.39
2022-08-07T03:50:55.923Z,88.98
2022-08-07T03:51:55.206Z,90.05
2022-08-07T03:52:52.593Z,90.56
2022-08-07T03:54:33.762Z,90.56
2022-08-07T03:54:55.089Z,90.61
2022-08-07T03:55:57.993Z,90.40
2022-08-07T03:57:03.407Z,90.30
2022-08-07T03:58:34.082Z,90.50
2022-08-07T03:59:08.644Z,90.65
2022-08-07T04:00:01.637Z,90.65
2022-08-07T04:00:53.292Z,90.75
2022-08-07T04:01:51.545Z,90.55
2022-08-07T04:02:51.487Z,91.06
2022-08-07T04:03:55.262Z,90.91
2022-08-07T04:04:51.418Z,90.50
2022-08-07T04:05:51.408Z,90.40
2022-08-07T04:06:52.401Z,91.02
2022-08-07T04:07:51.523Z,91.90
2022-08-07T04:08:51.358Z,91.08
2022-08-07T04:09:51.399Z,90.97
2022-08-07T04:10:54.090Z,90.05
2022-08-07T04:12:24.266Z,90.01
2022-08-07T04:12:52.310Z,91.14
2022-08-07T04:14:10.327Z,90.22
2022-08-07T04:14:52.279Z,90.62
2022-08-07T04:15:51.270Z,90.32
2022-08-07T04:16:58.241Z,89.25
2022-08-07T04:18:56.509Z,88.84
2022-08-07T04:18:59.423Z,88.74
2022-08-07T04:19:54.638Z,89.56
2022-08-07T04:20:54.793Z,89.36
2022-08-07T04:21:59.879Z,89.15
2022-08-07T04:22:53.843Z,89.25
2022-08-07T04:24:07.233Z,88.84
2022-08-07T04:24:52.182Z,88.33
2022-08-07T04:25:51.136Z,88.12
2022-08-07T04:26:51.127Z,88.08
2022-08-07T04:27:59.389Z,87.88
2022-08-07T04:28:52.093Z,87.47
2022-08-07T04:29:58.643Z,86.96
2022-08-07T04:30:57.237Z,87.37
2022-08-07T04:32:09.647Z,86.85
2022-08-07T04:32:58.308Z,86.55
2022-08-07T04:33:56.446Z,87.22
2022-08-07T04:34:51.014Z,88.04
2022-08-07T04:35:51.429Z,88.14
2022-08-07T04:36:51.007Z,87.84
2022-08-07T04:38:03.667Z,88.35
2022-08-07T04:38:51.966Z,88.35
2022-08-07T04:39:51.018Z,87.12
2022-08-07T04:40:52.089Z,86.30
2022-08-07T04:41:51.055Z,86.20
2022-08-07T04:42:51.607Z,84.83
2022-08-07T04:44:10.578Z,85.14
2022-08-07T04:44:54.805Z,84.63
2022-08-07T04:46:00.955Z,85.34
2022-08-07T04:47:04.371Z,85.40
2022-08-07T04:47:56.885Z,85.40
2022-08-07T04:48:51.828Z,84.69
2022-08-07T04:50:03.684Z,84.99
2022-08-07T04:50:52.029Z,84.89
2022-08-07T04:51:50.809Z,85.10
2022-08-07T04:52:51.775Z,84.38
2022-08-07T04:54:05.547Z,84.34
2022-08-07T04:54:51.750Z,84.65
2022-08-07T04:58:10.236Z,83.83
2022-08-07T04:58:13.257Z,83.83
2022-08-07T04:58:15.072Z,84.03
2022-08-07T05:00:11.565Z,84.03
2022-08-07T05:00:51.733Z,83.59
2022-08-07T05:01:51.321Z,83.59
2022-08-07T05:02:50.714Z,83.07
2022-08-07T05:04:07.784Z,81.95
2022-08-07T05:04:51.614Z,81.65
2022-08-07T05:05:57.481Z,81.54
2022-08-07T05:06:51.702Z,82.22
2022-08-07T05:07:51.749Z,81.10
2022-08-07T05:09:00.831Z,81.51
2022-08-07T05:09:51.582Z,82.42
2022-08-07T05:10:50.533Z,82.42
2022-08-07T05:11:56.800Z,82.73
2022-08-07T05:12:53.852Z,85.35
2022-08-07T05:14:52.588Z,85.96
2022-08-07T05:14:59.069Z,86.98
2022-08-07T05:15:51.505Z,88.00
2022-08-07T05:16:52.864Z,88.17
2022-08-07T05:17:54.784Z,87.35
2022-08-07T05:18:50.426Z,87.76
2022-08-07T05:19:50.445Z,86.94
2022-08-07T05:20:50.397Z,86.33
2022-08-07T05:22:00.381Z,86.59
2022-08-07T05:22:51.377Z,86.18
2022-08-07T05:23:50.369Z,84.34
2022-08-07T05:24:50.473Z,83.73
2022-08-07T05:26:13.447Z,84.34
2022-08-07T05:26:51.337Z,85.16
2022-08-07T05:28:02.958Z,85.68
2022-08-07T05:28:51.337Z,85.16
2022-08-07T05:29:52.091Z,85.06
2022-08-07T05:30:50.268Z,85.06
2022-08-07T05:31:52.736Z,84.51
2022-08-07T05:32:50.240Z,84.51
2022-08-07T05:34:01.131Z,84.61
2022-08-07T05:34:51.211Z,84.72
2022-08-07T05:35:50.243Z,84.47
2022-08-07T05:36:52.731Z,84.47
2022-08-07T05:38:08.716Z,84.27
2022-08-07T05:39:00.644Z,83.51
2022-08-07T05:40:14.223Z,82.09
2022-08-07T05:40:51.735Z,81.99
2022-08-07T05:42:01.823Z,82.29
2022-08-07T05:42:56.140Z,83.31
2022-08-07T05:44:11.648Z,83.11
2022-08-07T05:45:04.380Z,83.37
2022-08-07T05:45:51.072Z,83.27
2022-08-07T05:46:51.170Z,83.17
2022-08-07T05:48:01.115Z,83.07
2022-08-07T05:48:58.485Z,82.56
2022-08-07T05:49:51.014Z,82.66
2022-08-07T05:50:50.749Z,82.73
2022-08-07T05:51:50.002Z,83.34
2022-08-07T05:52:50.022Z,83.54
2022-08-07T05:54:12.648Z,83.95
2022-08-07T05:54:55.345Z,84.05
2022-08-07T05:56:02.761Z,83.64
2022-08-07T05:56:51.259Z,83.29
2022-08-07T05:57:50.368Z,83.50
2022-08-07T05:58:52.837Z,82.07
2022-08-07T05:59:57.476Z,81.87
2022-08-07T06:00:51.191Z,81.43
2022-08-07T06:01:49.926Z,81.84
2022-08-07T06:02:49.938Z,81.63
2022-08-07T06:03:53.992Z,82.14
2022-08-07T06:04:50.897Z,81.84
2022-08-07T06:05:49.798Z,80.68
2022-08-07T06:06:56.650Z,80.17
2022-08-07T06:08:13.961Z,80.27
2022-08-07T06:08:51.536Z,79.36
2022-08-07T06:10:05.491Z,79.77
2022-08-07T06:10:51.949Z,79.36
2022-08-07T06:11:49.739Z,78.75
2022-08-07T06:12:49.709Z,79.56
2022-08-07T06:14:11.447Z,79.25
2022-08-07T06:14:50.689Z,78.75
2022-08-07T06:15:49.929Z,77.59
2022-08-07T06:16:50.226Z,75.67
2022-08-07T06:17:53.605Z,76.07
2022-08-07T06:18:51.474Z,73.94
2022-08-07T06:20:03.668Z,74.65
2022-08-07T06:22:14.425Z,75.63
2022-08-07T06:22:15.331Z,75.73
2022-08-07T06:23:24.868Z,76.10
2022-08-07T06:24:52.235Z,76.61
2022-08-07T06:24:56.943Z,76.31
2022-08-07T06:25:54.345Z,76.20
2022-08-07T06:26:50.533Z,75.90
2022-08-07T06:28:01.117Z,75.90
2022-08-07T06:28:50.493Z,75.59
2022-08-07T06:29:49.505Z,75.19
2022-08-07T06:30:52.836Z,74.78
2022-08-07T06:31:50.587Z,73.66
2022-08-07T06:32:49.463Z,71.70
2022-08-07T06:33:49.427Z,70.48
2022-08-07T06:34:49.425Z,71.20
2022-08-07T06:36:06.660Z,71.97
2022-08-07T06:36:51.902Z,69.34
2022-08-07T06:37:49.376Z,70.05
2022-08-07T06:38:59.494Z,70.65
2022-08-07T06:40:16.057Z,71.26
2022-08-07T06:40:50.390Z,69.84
2022-08-07T06:42:01.923Z,68.93
2022-08-07T06:42:50.298Z,69.81
2022-08-07T06:43:59.194Z,69.51
2022-08-07T06:44:51.096Z,68.80
2022-08-07T06:45:49.276Z,68.80
2022-08-07T06:46:53.566Z,68.87
2022-08-07T06:47:58.911Z,68.66
2022-08-07T06:48:50.226Z,66.74
2022-08-07T06:49:51.807Z,66.13
2022-08-07T06:50:50.211Z,66.50
2022-08-07T06:51:49.962Z,65.70
2022-08-07T06:52:52.909Z,66.41
2022-08-07T06:55:27.693Z,67.52
2022-08-07T06:55:32.351Z,67.62
2022-08-07T06:55:53.533Z,66.17
2022-08-07T06:56:50.646Z,65.56
2022-08-07T06:57:51.986Z,64.73
2022-08-07T07:00:12.994Z,65.03
2022-08-07T07:00:14.350Z,66.24
2022-08-07T07:00:52.996Z,66.61
2022-08-07T07:01:50.920Z,67.52
2022-08-07T07:02:57.715Z,67.22
2022-08-07T07:03:57.116Z,66.61
2022-08-07T07:04:54.899Z,66.41
2022-08-07T07:06:02.926Z,65.30
2022-08-07T07:06:57.508Z,64.59
2022-08-07T07:08:00.073Z,64.79
2022-08-07T07:08:49.967Z,63.38
2022-08-07T07:09:48.955Z,62.74
2022-08-07T07:10:54.846Z,62.95
2022-08-07T07:12:09.067Z,63.76
2022-08-07T07:12:50.194Z,63.85
2022-08-07T07:13:58.714Z,63.22
2022-08-07T07:14:49.886Z,61.80
2022-08-07T07:15:51.536Z,62.82
2022-08-07T07:16:50.581Z,62.79
2022-08-07T07:17:50.466Z,62.68
2022-08-07T07:18:48.876Z,63.59
2022-08-07T07:19:56.441Z,62.55
2022-08-07T07:20:50.212Z,62.96
2022-08-07T07:22:04.633Z,61.95
2022-08-07T07:24:05.245Z,61.75
2022-08-07T07:24:06.548Z,59.73
2022-08-07T07:25:02.989Z,60.13
2022-08-07T07:26:33.869Z,61.61
2022-08-07T07:26:52.041Z,60.10
2022-08-07T07:27:58.573Z,59.90
2022-08-07T07:29:56.070Z,59.80
2022-08-07T07:30:08.738Z,59.80
2022-08-07T07:30:49.681Z,60.31
2022-08-07T07:31:48.652Z,61.21
2022-08-07T07:32:48.643Z,60.48
2022-08-07T07:33:49.077Z,59.67
2022-08-07T07:34:49.642Z,60.68
2022-08-07T07:36:03.811Z,59.17
2022-08-07T07:36:54.063Z,58.26
2022-08-07T07:38:02.084Z,58.84
2022-08-07T07:38:49.569Z,58.23
2022-08-07T07:39:54.428Z,59.14
2022-08-07T07:40:49.546Z,58.03
2022-08-07T07:41:50.695Z,57.60
2022-08-07T07:42:51.370Z,58.11
2022-08-07T07:44:14.143Z,56.90
2022-08-07T07:44:49.863Z,56.67
2022-08-07T07:46:42.572Z,56.40
2022-08-07T07:46:57.125Z,56.57
2022-08-07T07:47:52.834Z,56.47
2022-08-07T07:48:48.437Z,55.66
2022-08-07T07:50:34.694Z,56.34
2022-08-07T07:50:49.418Z,58.15
2022-08-07T07:51:57.411Z,55.91
2022-08-07T07:52:49.388Z,56.01
2022-08-07T07:53:51.955Z,56.01
2022-08-07T07:54:50.592Z,54.91
2022-08-07T07:55:57.847Z,55.38
2022-08-07T07:56:49.332Z,54.08
2022-08-07T07:57:53.149Z,54.25
2022-08-07T07:58:49.300Z,55.96
2022-08-07T07:59:52.548Z,54.85
2022-08-07T08:00:53.786Z,53.34
2022-08-07T08:02:02.379Z,52.92
2022-08-07T08:03:05.216Z,53.22
2022-08-07T08:04:10.467Z,52.22
2022-08-07T08:04:50.474Z,52.42
2022-08-07T08:05:55.368Z,52.49
2022-08-07T08:06:52.102Z,52.82
2022-08-07T08:07:51.568Z,51.79
2022-08-07T08:08:49.163Z,51.69
2022-08-07T08:09:52.343Z,52.17
2022-08-07T08:10:49.261Z,50.68
2022-08-07T08:12:02.767Z,50.96
2022-08-07T08:12:59.626Z,51.67
2022-08-07T08:13:53.262Z,50.66
2022-08-07T08:14:49.095Z,52.14
2022-08-07T08:15:58.327Z,51.34
2022-08-07T08:16:50.409Z,50.54
2022-08-07T08:17:57.822Z,50.84
2022-08-07T08:18:50.387Z,50.13
2022-08-07T08:20:17.366Z,49.63
2022-08-07T08:20:49.014Z,51.12
2022-08-07T08:21:55.400Z,49.31
2022-08-07T08:22:54.336Z,50.92
2022-08-07T08:23:48.990Z,49.51
2022-08-07T08:24:51.285Z,48.99
2022-08-07T08:25:49.570Z,48.49
2022-08-07T08:26:50.492Z,48.28
2022-08-07T08:27:56.701Z,47.28
2022-08-07T08:28:48.897Z,48.08
2022-08-07T08:29:55.886Z,49.96
2022-08-07T08:30:51.435Z,49.37
2022-08-07T08:32:17.495Z,50.07
2022-08-07T08:32:49.138Z,48.86
2022-08-07T08:33:49.668Z,49.44
2022-08-07T08:34:48.813Z,48.14
2022-08-07T08:35:50.041Z,46.62
2022-08-07T08:36:47.793Z,48.02
2022-08-07T08:38:00.507Z,45.59
2022-08-07T08:38:48.764Z,46.62
2022-08-07T08:39:54.910Z,46.42
2022-08-07T08:40:48.759Z,48.19
2022-08-07T08:41:58.138Z,47.69
2022-08-07T08:42:51.542Z,47.47
2022-08-07T08:43:50.522Z,44.87
2022-08-07T08:44:48.689Z,44.27
2022-08-07T08:45:59.049Z,44.87
2022-08-07T08:46:49.615Z,43.18
2022-08-07T08:47:52.574Z,42.87
2022-08-07T08:48:50.953Z,43.35
2022-08-07T08:50:02.447Z,43.65
2022-08-07T08:50:51.703Z,43.93
2022-08-07T08:52:12.445Z,44.43
2022-08-07T08:52:53.590Z,42.77
2022-08-07T08:53:49.517Z,43.05
2022-08-07T08:54:48.522Z,45.65
2022-08-07T08:55:54.730Z,45.33
2022-08-07T08:56:49.489Z,45.93
2022-08-07T08:57:47.502Z,43.83
2022-08-07T08:58:47.499Z,43.03
2022-08-07T08:59:48.145Z,44.03
2022-08-07T09:00:48.357Z,43.83
2022-08-07T09:01:49.518Z,42.71
2022-08-07T09:02:49.602Z,39.82
2022-08-07T09:03:52.580Z,41.19
2022-08-07T09:04:48.366Z,45.76
2022-08-07T09:05:47.415Z,43.07
2022-08-07T09:06:47.974Z,41.47
2022-08-07T09:07:57.733Z,38.09
2022-08-07T09:08:48.365Z,38.29
2022-08-07T09:09:47.600Z,39.98
2022-08-07T09:10:48.305Z,39.10
2022-08-07T09:11:55.544Z,37.90
2022-08-07T09:12:53.668Z,37.70
2022-08-07T09:13:49.378Z,37.40
2022-08-07T09:14:50.648Z,36.51
2022-08-07T09:16:23.532Z,37.23
2022-08-07T09:16:49.205Z,37.51
2022-08-07T09:17:59.021Z,39.00
2022-08-07T09:18:53.296Z,42.18
2022-08-07T09:19:52.901Z,40.46
2022-08-07T09:20:58.482Z,39.36
2022-08-07T09:22:22.887Z,40.26
2022-08-07T09:24:30.453Z,41.16
2022-08-07T09:24:31.342Z,40.76
2022-08-07T09:24:55.332Z,40.46
2022-08-07T09:25:54.300Z,39.26
2022-08-07T09:26:50.935Z,39.94
2022-08-07T09:28:00.217Z,40.64
2022-08-07T09:30:04.471Z,42.05
2022-08-07T09:30:07.582Z,41.83
2022-08-07T09:30:50.627Z,39.66
2022-08-07T09:31:49.325Z,39.36
2022-08-07T09:32:48.002Z,39.76
2022-08-07T09:33:56.617Z,39.26
2022-08-07T09:34:53.826Z,39.84
2022-08-07T09:36:04.670Z,40.74
2022-08-07T09:36:49.726Z,39.44
2022-08-07T09:37:53.707Z,39.64
2022-08-07T09:38:49.964Z,38.33
2022-08-07T09:39:53.867Z,38.53
2022-08-07T09:40:47.959Z,39.03
2022-08-07T09:41:59.156Z,40.50
2022-08-07T09:42:50.210Z,39.50
2022-08-07T09:44:06.755Z,41.47
2022-08-07T09:46:28.650Z,41.17
2022-08-07T09:47:50.493Z,38.28
2022-08-07T09:47:51.765Z,38.18
2022-08-07T09:47:58.136Z,37.77
2022-08-07T09:50:02.068Z,36.98
2022-08-07T09:50:18.327Z,38.67
2022-08-07T09:50:47.814Z,37.77
2022-08-07T09:52:15.570Z,41.25
2022-08-07T09:52:51.665Z,39.57
2022-08-07T09:53:55.069Z,37.99
2022-08-07T09:54:47.754Z,37.90
2022-08-07T09:56:03.816Z,36.40
2022-08-07T09:56:47.724Z,39.78
2022-08-07T09:57:47.274Z,40.88
2022-08-07T09:58:48.654Z,41.06
2022-08-07T10:00:01.441Z,39.84
2022-08-07T10:00:47.712Z,37.04
2022-08-07T10:01:51.717Z,37.24
2022-08-07T10:02:55.765Z,36.94
2022-08-07T10:04:04.919Z,35.85
2022-08-07T10:04:52.932Z,34.76
2022-08-07T10:05:59.613Z,37.52
2022-08-07T10:06:49.245Z,38.92
2022-08-07T10:07:52.641Z,37.60
2022-08-07T10:08:49.632Z,38.38
2022-08-07T10:10:01.036Z,37.19
2022-08-07T10:11:59.168Z,37.17
2022-08-07T10:12:02.287Z,37.47
2022-08-07T10:12:53.197Z,36.58
2022-08-07T10:14:00.686Z,33.90
2022-08-07T10:14:55.283Z,34.63
2022-08-07T10:15:47.483Z,34.55
2022-08-07T10:16:46.506Z,35.47
2022-08-07T10:18:00.785Z,35.59
2022-08-07T10:18:47.445Z,36.98
2022-08-07T10:19:46.425Z,36.78
2022-08-07T10:20:46.432Z,35.89
2022-08-07T10:22:12.231Z,36.90
2022-08-07T10:22:51.019Z,39.57
2022-08-07T10:24:06.734Z,37.56
2022-08-07T10:24:47.356Z,38.43
2022-08-07T10:25:46.357Z,36.75
2022-08-07T10:26:53.027Z,35.83
2022-08-07T10:27:51.439Z,35.52
2022-08-07T10:28:49.760Z,37.39
2022-08-07T10:29:51.824Z,36.10
2022-08-07T10:30:47.282Z,37.88
2022-08-07T10:31:46.270Z,36.79
2022-08-07T10:32:52.956Z,35.41
2022-08-07T10:34:06.909Z,33.82
2022-08-07T10:34:47.237Z,39.00
2022-08-07T10:35:56.998Z,37.70
2022-08-07T10:36:47.564Z,36.11
2022-08-07T10:38:00.449Z,36.11
2022-08-07T10:38:49.224Z,35.04
2022-08-07T10:40:03.039Z,35.64
2022-08-07T10:40:47.167Z,36.13
2022-08-07T10:41:54.572Z,34.94
2022-08-07T10:42:48.099Z,34.74
2022-08-07T10:43:46.226Z,33.45
2022-08-07T10:44:46.106Z,33.76
2022-08-07T10:45:58.381Z,34.64
2022-08-07T10:46:47.076Z,33.65
2022-08-07T10:47:53.635Z,35.83
2022-08-07T10:48:47.047Z,36.43
2022-08-07T10:49:50.771Z,35.64
2022-08-07T10:50:50.408Z,34.03
2022-08-07T10:52:13.030Z,36.02
2022-08-07T10:52:51.175Z,33.72
2022-08-07T10:53:45.978Z,34.01
2022-08-07T10:55:00.851Z,35.90
2022-08-07T10:55:46.952Z,36.68
2022-08-07T10:56:45.932Z,37.85
2022-08-07T10:57:45.921Z,36.26
2022-08-07T10:58:47.449Z,35.55
2022-08-07T10:59:47.581Z,35.55
2022-08-07T11:00:50.241Z,35.04
2022-08-07T11:01:52.079Z,32.39
2022-08-07T11:02:49.044Z,32.40
2022-08-07T11:03:52.998Z,32.70
2022-08-07T11:04:46.844Z,34.89
2022-08-07T11:05:50.994Z,34.80
2022-08-07T11:06:46.809Z,32.93
2022-08-07T11:07:59.662Z,32.51
2022-08-07T11:08:46.786Z,36.38
2022-08-07T11:10:09.923Z,34.59
2022-08-07T11:10:52.314Z,34.52
2022-08-07T11:11:51.808Z,35.71
2022-08-07T11:12:48.991Z,36.00
2022-08-07T11:14:45.968Z,36.10
2022-08-07T11:14:57.283Z,33.80
2022-08-07T11:15:54.306Z,35.69
2022-08-07T11:16:50.854Z,35.47
2022-08-07T11:17:48.000Z,33.07
2022-08-07T11:18:50.688Z,36.44
2022-08-07T11:19:46.640Z,32.56
2022-08-07T11:20:45.621Z,36.62
2022-08-07T11:21:45.606Z,34.83
2022-08-07T11:22:46.508Z,33.87
2022-08-07T11:23:45.612Z,39.12
2022-08-07T11:24:45.877Z,37.22
2022-08-07T11:25:49.742Z,34.92
2022-08-07T11:26:50.017Z,33.34
2022-08-07T11:28:02.697Z,34.51
2022-08-07T11:28:53.548Z,36.29
2022-08-07T11:29:48.156Z,34.89
2022-08-07T11:30:45.509Z,31.94
2022-08-07T11:31:45.474Z,33.92
2022-08-07T11:32:46.414Z,32.12
2022-08-07T11:33:59.394Z,33.31
2022-08-07T11:34:46.438Z,31.25
2022-08-07T11:35:59.736Z,32.35
2022-08-07T11:36:46.408Z,31.38
2022-08-07T11:37:57.848Z,31.20
2022-08-07T11:38:50.668Z,30.99
2022-08-07T11:40:01.041Z,30.81
2022-08-07T11:40:49.760Z,30.93
2022-08-07T11:42:01.330Z,34.91
2022-08-07T11:42:47.374Z,31.93
2022-08-07T11:44:10.830Z,32.82
2022-08-07T11:44:52.706Z,33.22
2022-08-07T11:45:49.860Z,32.93
2022-08-07T11:46:46.283Z,34.10
2022-08-07T11:47:56.549Z,32.71
2022-08-07T11:49:17.492Z,32.51
2022-08-07T11:50:11.353Z,34.99
2022-08-07T11:50:57.807Z,36.08
2022-08-07T11:51:46.573Z,35.86
2022-08-07T11:52:45.195Z,35.16
2022-08-07T11:54:00.606Z,35.93
2022-08-07T11:54:46.441Z,33.65
2022-08-07T11:56:09.009Z,32.07
2022-08-07T11:56:48.637Z,31.38
2022-08-07T11:57:59.619Z,33.36
2022-08-07T11:58:49.788Z,32.78
2022-08-07T12:00:11.795Z,32.58
2022-08-07T12:00:48.894Z,32.58
2022-08-07T12:01:59.533Z,33.97
2022-08-07T12:02:52.296Z,34.36
2022-08-07T12:03:46.511Z,34.55
2022-08-07T12:04:45.737Z,32.76
2022-08-07T12:05:49.302Z,33.45
2022-08-07T12:06:51.797Z,32.27
2022-08-07T12:07:53.700Z,32.67
2022-08-07T12:08:45.979Z,33.06
2022-08-07T12:09:46.165Z,35.34
2022-08-07T12:10:44.954Z,34.03
2022-08-07T12:12:09.748Z,34.22
2022-08-07T12:12:46.162Z,34.20
2022-08-07T12:13:45.124Z,33.70
2022-08-07T12:14:44.919Z,34.67
2022-08-07T12:16:05.631Z,32.88
2022-08-07T12:16:46.115Z,33.77
2022-08-07T12:17:59.846Z,32.37
2022-08-07T12:18:45.839Z,33.95
2022-08-07T12:20:03.322Z,31.78
2022-08-07T12:20:46.262Z,31.76
2022-08-07T12:21:56.019Z,31.86
2022-08-07T12:22:56.124Z,30.09
2022-08-07T12:24:06.882Z,28.34
2022-08-07T12:24:45.805Z,32.01
2022-08-07T12:26:05.837Z,29.36
2022-08-07T12:26:49.122Z,31.43
2022-08-07T12:28:09.290Z,31.84
2022-08-07T12:28:49.620Z,31.74
2022-08-07T12:29:45.712Z,31.16
2022-08-07T12:30:46.928Z,29.58
2022-08-07T12:32:02.608Z,29.38
2022-08-07T12:32:46.605Z,29.38
2022-08-07T12:34:00.713Z,29.58
2022-08-07T12:34:49.604Z,30.79
2022-08-07T12:35:48.136Z,30.39
2022-08-07T12:36:49.328Z,33.64
2022-08-07T12:38:09.680Z,30.26
2022-08-07T12:38:47.444Z,32.81
2022-08-07T12:39:50.407Z,33.69
2022-08-07T12:40:47.696Z,31.50
2022-08-07T12:41:51.346Z,33.08
2022-08-07T12:42:55.109Z,34.05
2022-08-07T12:44:04.354Z,30.89
2022-08-07T12:44:45.552Z,31.76
2022-08-07T12:45:45.446Z,29.48
2022-08-07T12:46:46.092Z,32.04
2022-08-07T12:47:44.489Z,31.04
2022-08-07T12:48:52.469Z,30.85
2022-08-07T12:49:51.240Z,32.32
2022-08-07T12:50:49.485Z,30.55
2022-08-07T12:51:51.552Z,31.16
2022-08-07T12:52:46.428Z,30.38
2022-08-07T12:54:03.103Z,30.00
2022-08-07T12:54:54.680Z,27.96